sensor_id;sensor_type;location;lat;lon;timestamp;temperature;humidity
19168;DHT22;9716;53.114;18.040;2022-12-18T00:00:08;-2.20;99.90
19168;DHT22;9716;53.114;18.040;2022-12-18T00:02:58;-2.20;99.90
19168;DHT22;9716;53.114;18.040;2022-12-18T00:05:27;-2.20;99.90
19168;DHT22;9716;53.114;18.040;2022-12-18T00:07:55;-2.20;99.90
19168;DHT22;9716;53.114;18.040;2022-12-18T00:10:23;-2.20;99.90
19168;DHT22;9716;53.114;18.040;2022-12-18T00:12:52;-2.10;99.90
19168;DHT22;9716;53.114;18.040;2022-12-18T00:15:20;-2.10;99.90
19168;DHT22;9716;53.114;18.040;2022-12-18T00:17:50;-2.10;99.90
19168;DHT22;9716;53.114;18.040;2022-12-18T00:20:19;-2.10;99.90
19168;DHT22;9716;53.114;18.040;2022-12-18T00:22:52;-2.10;99.90
19168;DHT22;9716;53.114;18.040;2022-12-18T00:25:21;-2.10;99.90
19168;DHT22;9716;53.114;18.040;2022-12-18T00:27:50;-2.10;99.90
19168;DHT22;9716;53.114;18.040;2022-12-18T00:30:18;-2.00;99.90
19168;DHT22;9716;53.114;18.040;2022-12-18T00:32:46;-2.00;99.90
19168;DHT22;9716;53.114;18.040;2022-12-18T00:35:15;-2.00;99.90
19168;DHT22;9716;53.114;18.040;2022-12-18T00:37:45;-2.00;99.90
19168;DHT22;9716;53.114;18.040;2022-12-18T00:40:13;-2.00;99.90
19168;DHT22;9716;53.114;18.040;2022-12-18T00:42:41;-1.90;99.90
19168;DHT22;9716;53.114;18.040;2022-12-18T00:45:26;-2.00;99.90
19168;DHT22;9716;53.114;18.040;2022-12-18T00:47:55;-2.00;99.90
19168;DHT22;9716;53.114;18.040;2022-12-18T00:50:24;-2.00;99.90
19168;DHT22;9716;53.114;18.040;2022-12-18T00:52:54;-1.90;99.90
19168;DHT22;9716;53.114;18.040;2022-12-18T00:55:22;-2.00;99.90
19168;DHT22;9716;53.114;18.040;2022-12-18T00:57:51;-1.90;99.90
19168;DHT22;9716;53.114;18.040;2022-12-18T01:00:20;-1.90;99.90
19168;DHT22;9716;53.114;18.040;2022-12-18T01:02:49;-2.00;99.90
19168;DHT22;9716;53.114;18.040;2022-12-18T01:05:18;-1.90;99.90
19168;DHT22;9716;53.114;18.040;2022-12-18T01:07:47;-1.90;99.90
19168;DHT22;9716;53.114;18.040;2022-12-18T01:10:17;-1.90;99.90
19168;DHT22;9716;53.114;18.040;2022-12-18T01:12:45;-2.00;99.90
19168;DHT22;9716;53.114;18.040;2022-12-18T01:15:14;-2.00;99.90
19168;DHT22;9716;53.114;18.040;2022-12-18T01:17:43;-1.90;99.90
19168;DHT22;9716;53.114;18.040;2022-12-18T01:20:13;-1.90;99.90
19168;DHT22;9716;53.114;18.040;2022-12-18T01:22:42;-1.90;99.90
19168;DHT22;9716;53.114;18.040;2022-12-18T01:25:10;-2.00;99.90
19168;DHT22;9716;53.114;18.040;2022-12-18T01:27:40;-2.00;99.90
19168;DHT22;9716;53.114;18.040;2022-12-18T01:30:09;-1.90;99.90
19168;DHT22;9716;53.114;18.040;2022-12-18T01:32:38;-2.00;99.90
19168;DHT22;9716;53.114;18.040;2022-12-18T01:35:07;-1.90;99.90
19168;DHT22;9716;53.114;18.040;2022-12-18T01:37:36;-1.90;99.90
19168;DHT22;9716;53.114;18.040;2022-12-18T01:40:06;-1.90;99.90
19168;DHT22;9716;53.114;18.040;2022-12-18T01:42:35;-1.90;99.90
19168;DHT22;9716;53.114;18.040;2022-12-18T01:45:08;-1.90;99.90
19168;DHT22;9716;53.114;18.040;2022-12-18T01:47:51;-1.90;99.90
19168;DHT22;9716;53.114;18.040;2022-12-18T01:50:22;-1.90;99.90
19168;DHT22;9716;53.114;18.040;2022-12-18T01:52:54;-1.80;99.90
19168;DHT22;9716;53.114;18.040;2022-12-18T01:55:25;-1.80;99.90
19168;DHT22;9716;53.114;18.040;2022-12-18T01:57:57;-1.80;99.90
19168;DHT22;9716;53.114;18.040;2022-12-18T02:00:28;-1.80;99.90
19168;DHT22;9716;53.114;18.040;2022-12-18T02:02:57;-1.80;99.90
19168;DHT22;9716;53.114;18.040;2022-12-18T02:05:34;-1.80;99.90
19168;DHT22;9716;53.114;18.040;2022-12-18T02:08:09;-1.80;99.90
19168;DHT22;9716;53.114;18.040;2022-12-18T02:10:44;-1.80;99.90
19168;DHT22;9716;53.114;18.040;2022-12-18T02:13:20;-1.80;99.90
19168;DHT22;9716;53.114;18.040;2022-12-18T02:15:56;-1.70;99.90
19168;DHT22;9716;53.114;18.040;2022-12-18T02:18:36;-1.70;99.90
19168;DHT22;9716;53.114;18.040;2022-12-18T02:21:12;-1.80;99.90
19168;DHT22;9716;53.114;18.040;2022-12-18T02:23:48;-1.70;99.90
19168;DHT22;9716;53.114;18.040;2022-12-18T02:26:22;-1.70;99.90
19168;DHT22;9716;53.114;18.040;2022-12-18T02:28:54;-1.60;99.90
19168;DHT22;9716;53.114;18.040;2022-12-18T02:31:27;-1.70;99.90
19168;DHT22;9716;53.114;18.040;2022-12-18T02:34:00;-1.70;99.90
19168;DHT22;9716;53.114;18.040;2022-12-18T02:36:32;-1.70;99.90
19168;DHT22;9716;53.114;18.040;2022-12-18T02:39:02;-1.70;99.90
19168;DHT22;9716;53.114;18.040;2022-12-18T02:41:34;-1.80;99.90
19168;DHT22;9716;53.114;18.040;2022-12-18T02:44:08;-1.70;99.90
19168;DHT22;9716;53.114;18.040;2022-12-18T02:46:39;-1.70;99.90
19168;DHT22;9716;53.114;18.040;2022-12-18T02:49:22;-1.70;99.90
19168;DHT22;9716;53.114;18.040;2022-12-18T02:51:56;-1.70;99.90
19168;DHT22;9716;53.114;18.040;2022-12-18T02:54:38;-1.70;99.90
19168;DHT22;9716;53.114;18.040;2022-12-18T02:57:15;-1.70;99.90
19168;DHT22;9716;53.114;18.040;2022-12-18T02:59:49;-1.70;99.90
19168;DHT22;9716;53.114;18.040;2022-12-18T03:02:25;-1.80;99.90
19168;DHT22;9716;53.114;18.040;2022-12-18T03:04:58;-1.80;99.90
19168;DHT22;9716;53.114;18.040;2022-12-18T03:07:35;-1.80;99.90
19168;DHT22;9716;53.114;18.040;2022-12-18T03:10:07;-1.80;99.90
19168;DHT22;9716;53.114;18.040;2022-12-18T03:12:41;-1.80;99.90
19168;DHT22;9716;53.114;18.040;2022-12-18T03:15:16;-1.80;99.90
19168;DHT22;9716;53.114;18.040;2022-12-18T03:17:48;-1.90;99.90
19168;DHT22;9716;53.114;18.040;2022-12-18T03:20:21;-1.90;99.90
19168;DHT22;9716;53.114;18.040;2022-12-18T03:22:59;-1.90;99.90
19168;DHT22;9716;53.114;18.040;2022-12-18T03:25:31;-1.90;99.90
19168;DHT22;9716;53.114;18.040;2022-12-18T03:28:03;-1.90;99.90
19168;DHT22;9716;53.114;18.040;2022-12-18T03:30:38;-1.90;99.90
19168;DHT22;9716;53.114;18.040;2022-12-18T03:33:11;-1.90;99.90
19168;DHT22;9716;53.114;18.040;2022-12-18T03:35:43;-1.90;99.90
19168;DHT22;9716;53.114;18.040;2022-12-18T03:38:11;-1.90;99.90
19168;DHT22;9716;53.114;18.040;2022-12-18T03:40:52;-1.90;99.90
19168;DHT22;9716;53.114;18.040;2022-12-18T03:43:30;-1.90;99.90
19168;DHT22;9716;53.114;18.040;2022-12-18T03:46:08;-1.90;99.90
19168;DHT22;9716;53.114;18.040;2022-12-18T03:48:44;-1.90;99.90
19168;DHT22;9716;53.114;18.040;2022-12-18T03:51:17;-1.80;99.90
19168;DHT22;9716;53.114;18.040;2022-12-18T03:53:50;-1.90;99.90
19168;DHT22;9716;53.114;18.040;2022-12-18T03:56:22;-1.90;99.90
19168;DHT22;9716;53.114;18.040;2022-12-18T03:58:55;-1.90;99.90
19168;DHT22;9716;53.114;18.040;2022-12-18T04:01:29;-1.90;99.90
19168;DHT22;9716;53.114;18.040;2022-12-18T04:03:59;-1.90;99.90
19168;DHT22;9716;53.114;18.040;2022-12-18T04:06:29;-1.80;99.90
19168;DHT22;9716;53.114;18.040;2022-12-18T04:08:58;-1.90;99.90
19168;DHT22;9716;53.114;18.040;2022-12-18T04:11:27;-1.90;99.90
19168;DHT22;9716;53.114;18.040;2022-12-18T04:13:57;-1.90;99.90
19168;DHT22;9716;53.114;18.040;2022-12-18T04:16:30;-1.90;99.90
19168;DHT22;9716;53.114;18.040;2022-12-18T04:18:59;-1.90;99.90
19168;DHT22;9716;53.114;18.040;2022-12-18T04:21:27;-1.90;99.90
19168;DHT22;9716;53.114;18.040;2022-12-18T04:23:56;-1.90;99.90
19168;DHT22;9716;53.114;18.040;2022-12-18T04:26:24;-1.90;99.90
19168;DHT22;9716;53.114;18.040;2022-12-18T04:28:53;-1.90;99.90
19168;DHT22;9716;53.114;18.040;2022-12-18T04:31:23;-1.90;99.90
19168;DHT22;9716;53.114;18.040;2022-12-18T04:33:51;-1.90;99.90
19168;DHT22;9716;53.114;18.040;2022-12-18T04:36:19;-1.90;99.90
19168;DHT22;9716;53.114;18.040;2022-12-18T04:38:48;-1.90;99.90
19168;DHT22;9716;53.114;18.040;2022-12-18T04:41:17;-1.90;99.90
19168;DHT22;9716;53.114;18.040;2022-12-18T04:43:45;-1.90;99.90
19168;DHT22;9716;53.114;18.040;2022-12-18T04:46:13;-1.90;99.90
19168;DHT22;9716;53.114;18.040;2022-12-18T04:48:45;-1.90;99.90
19168;DHT22;9716;53.114;18.040;2022-12-18T04:51:15;-1.90;99.90
19168;DHT22;9716;53.114;18.040;2022-12-18T04:53:49;-1.90;99.90
19168;DHT22;9716;53.114;18.040;2022-12-18T04:56:17;-1.90;99.90
19168;DHT22;9716;53.114;18.040;2022-12-18T04:58:46;-1.90;99.90
19168;DHT22;9716;53.114;18.040;2022-12-18T05:01:16;-2.00;99.90
19168;DHT22;9716;53.114;18.040;2022-12-18T05:03:46;-1.90;99.90
19168;DHT22;9716;53.114;18.040;2022-12-18T05:06:14;-2.00;99.90
19168;DHT22;9716;53.114;18.040;2022-12-18T05:08:43;-2.00;99.90
19168;DHT22;9716;53.114;18.040;2022-12-18T05:11:14;-2.00;99.90
19168;DHT22;9716;53.114;18.040;2022-12-18T05:13:44;-2.10;99.90
19168;DHT22;9716;53.114;18.040;2022-12-18T05:16:14;-2.10;99.90
19168;DHT22;9716;53.114;18.040;2022-12-18T05:18:42;-2.20;99.90
19168;DHT22;9716;53.114;18.040;2022-12-18T05:21:13;-2.20;99.90
19168;DHT22;9716;53.114;18.040;2022-12-18T05:23:41;-2.20;99.90
19168;DHT22;9716;53.114;18.040;2022-12-18T05:26:16;-2.30;99.90
19168;DHT22;9716;53.114;18.040;2022-12-18T05:28:44;-2.30;99.90
19168;DHT22;9716;53.114;18.040;2022-12-18T05:31:14;-2.30;99.90
19168;DHT22;9716;53.114;18.040;2022-12-18T05:33:42;-2.40;99.90
19168;DHT22;9716;53.114;18.040;2022-12-18T05:36:13;-2.40;99.90
19168;DHT22;9716;53.114;18.040;2022-12-18T05:38:41;-2.40;99.90
19168;DHT22;9716;53.114;18.040;2022-12-18T05:41:10;-2.50;99.90
19168;DHT22;9716;53.114;18.040;2022-12-18T05:43:40;-2.50;99.90
19168;DHT22;9716;53.114;18.040;2022-12-18T05:46:12;-2.50;99.90
19168;DHT22;9716;53.114;18.040;2022-12-18T05:48:42;-2.50;99.90
19168;DHT22;9716;53.114;18.040;2022-12-18T05:51:14;-2.50;99.90
19168;DHT22;9716;53.114;18.040;2022-12-18T05:53:43;-2.60;99.90
19168;DHT22;9716;53.114;18.040;2022-12-18T05:56:14;-2.60;99.90
19168;DHT22;9716;53.114;18.040;2022-12-18T05:58:43;-2.60;99.90
19168;DHT22;9716;53.114;18.040;2022-12-18T06:01:17;-2.70;99.90
19168;DHT22;9716;53.114;18.040;2022-12-18T06:03:46;-2.70;99.90
19168;DHT22;9716;53.114;18.040;2022-12-18T06:06:19;-2.80;99.90
19168;DHT22;9716;53.114;18.040;2022-12-18T06:08:48;-2.80;99.90
19168;DHT22;9716;53.114;18.040;2022-12-18T06:11:18;-2.80;99.90
19168;DHT22;9716;53.114;18.040;2022-12-18T06:13:49;-2.90;99.90
19168;DHT22;9716;53.114;18.040;2022-12-18T06:16:24;-2.90;99.90
19168;DHT22;9716;53.114;18.040;2022-12-18T06:18:53;-3.00;99.90
19168;DHT22;9716;53.114;18.040;2022-12-18T06:21:25;-3.00;99.90
19168;DHT22;9716;53.114;18.040;2022-12-18T06:23:54;-3.10;99.90
19168;DHT22;9716;53.114;18.040;2022-12-18T06:26:23;-3.10;99.90
19168;DHT22;9716;53.114;18.040;2022-12-18T06:28:55;-3.10;99.90
19168;DHT22;9716;53.114;18.040;2022-12-18T06:31:24;-3.20;99.90
19168;DHT22;9716;53.114;18.040;2022-12-18T06:33:52;-3.20;99.90
19168;DHT22;9716;53.114;18.040;2022-12-18T06:36:21;-3.20;99.90
19168;DHT22;9716;53.114;18.040;2022-12-18T06:38:51;-3.30;99.90
19168;DHT22;9716;53.114;18.040;2022-12-18T06:41:21;-3.30;99.90
19168;DHT22;9716;53.114;18.040;2022-12-18T06:43:50;-3.30;99.90
19168;DHT22;9716;53.114;18.040;2022-12-18T06:46:24;-3.30;99.90
19168;DHT22;9716;53.114;18.040;2022-12-18T06:48:52;-3.30;99.90
19168;DHT22;9716;53.114;18.040;2022-12-18T06:51:22;-3.30;99.90
19168;DHT22;9716;53.114;18.040;2022-12-18T06:54:12;-3.30;99.90
19168;DHT22;9716;53.114;18.040;2022-12-18T06:56:41;-3.30;99.90
19168;DHT22;9716;53.114;18.040;2022-12-18T06:59:09;-3.30;99.90
19168;DHT22;9716;53.114;18.040;2022-12-18T07:01:38;-3.30;99.90
19168;DHT22;9716;53.114;18.040;2022-12-18T07:04:06;-3.40;99.90
19168;DHT22;9716;53.114;18.040;2022-12-18T07:06:35;-3.40;99.90
19168;DHT22;9716;53.114;18.040;2022-12-18T07:09:03;-3.40;99.90
19168;DHT22;9716;53.114;18.040;2022-12-18T07:11:34;-3.40;99.90
19168;DHT22;9716;53.114;18.040;2022-12-18T07:14:02;-3.40;99.90
19168;DHT22;9716;53.114;18.040;2022-12-18T07:16:31;-3.30;99.90
19168;DHT22;9716;53.114;18.040;2022-12-18T07:18:59;-3.30;99.90
19168;DHT22;9716;53.114;18.040;2022-12-18T07:21:28;-3.30;99.90
19168;DHT22;9716;53.114;18.040;2022-12-18T07:23:56;-3.30;99.90
19168;DHT22;9716;53.114;18.040;2022-12-18T07:26:25;-3.30;99.90
19168;DHT22;9716;53.114;18.040;2022-12-18T07:28:56;-3.30;99.90
19168;DHT22;9716;53.114;18.040;2022-12-18T07:31:26;-3.20;99.90
19168;DHT22;9716;53.114;18.040;2022-12-18T07:33:55;-3.30;99.90
19168;DHT22;9716;53.114;18.040;2022-12-18T07:36:24;-3.20;99.90
19168;DHT22;9716;53.114;18.040;2022-12-18T07:38:52;-3.20;99.90
19168;DHT22;9716;53.114;18.040;2022-12-18T07:41:21;-3.20;99.90
19168;DHT22;9716;53.114;18.040;2022-12-18T07:43:49;-3.30;99.90
19168;DHT22;9716;53.114;18.040;2022-12-18T07:46:19;-3.30;99.90
19168;DHT22;9716;53.114;18.040;2022-12-18T07:48:48;-3.30;99.90
19168;DHT22;9716;53.114;18.040;2022-12-18T07:51:18;-3.30;99.90
19168;DHT22;9716;53.114;18.040;2022-12-18T07:53:47;-3.30;99.90
19168;DHT22;9716;53.114;18.040;2022-12-18T07:56:19;-3.30;99.90
19168;DHT22;9716;53.114;18.040;2022-12-18T07:58:55;-3.30;99.90
19168;DHT22;9716;53.114;18.040;2022-12-18T08:01:25;-3.30;99.90
19168;DHT22;9716;53.114;18.040;2022-12-18T08:03:54;-3.20;99.90
19168;DHT22;9716;53.114;18.040;2022-12-18T08:06:23;-3.20;99.90
19168;DHT22;9716;53.114;18.040;2022-12-18T08:08:52;-3.20;99.90
19168;DHT22;9716;53.114;18.040;2022-12-18T08:11:22;-3.20;99.90
19168;DHT22;9716;53.114;18.040;2022-12-18T08:13:51;-3.10;99.90
19168;DHT22;9716;53.114;18.040;2022-12-18T08:16:20;-3.20;99.90
19168;DHT22;9716;53.114;18.040;2022-12-18T08:18:51;-3.20;99.90
19168;DHT22;9716;53.114;18.040;2022-12-18T08:21:22;-3.10;99.90
19168;DHT22;9716;53.114;18.040;2022-12-18T08:23:51;-3.20;99.90
19168;DHT22;9716;53.114;18.040;2022-12-18T08:26:20;-3.10;99.90
19168;DHT22;9716;53.114;18.040;2022-12-18T08:28:49;-3.10;99.90
19168;DHT22;9716;53.114;18.040;2022-12-18T08:31:19;-3.10;99.90
19168;DHT22;9716;53.114;18.040;2022-12-18T08:33:51;-3.00;99.90
19168;DHT22;9716;53.114;18.040;2022-12-18T08:36:22;-3.00;99.90
19168;DHT22;9716;53.114;18.040;2022-12-18T08:38:51;-3.00;99.90
19168;DHT22;9716;53.114;18.040;2022-12-18T08:41:20;-2.90;99.90
19168;DHT22;9716;53.114;18.040;2022-12-18T08:43:49;-2.80;99.90
19168;DHT22;9716;53.114;18.040;2022-12-18T08:46:36;-2.80;99.90
19168;DHT22;9716;53.114;18.040;2022-12-18T08:49:07;-2.70;99.90
19168;DHT22;9716;53.114;18.040;2022-12-18T08:51:36;-2.60;99.90
19168;DHT22;9716;53.114;18.040;2022-12-18T08:54:05;-2.70;99.90
19168;DHT22;9716;53.114;18.040;2022-12-18T08:56:34;-2.60;99.90
19168;DHT22;9716;53.114;18.040;2022-12-18T08:59:02;-2.50;99.90
19168;DHT22;9716;53.114;18.040;2022-12-18T09:01:31;-2.50;99.90
19168;DHT22;9716;53.114;18.040;2022-12-18T09:04:01;-2.50;99.90
19168;DHT22;9716;53.114;18.040;2022-12-18T09:06:32;-2.40;99.90
19168;DHT22;9716;53.114;18.040;2022-12-18T09:09:01;-2.40;99.90
19168;DHT22;9716;53.114;18.040;2022-12-18T09:11:30;-2.30;99.90
19168;DHT22;9716;53.114;18.040;2022-12-18T09:14:00;-2.20;99.90
19168;DHT22;9716;53.114;18.040;2022-12-18T09:16:29;-2.20;99.90
19168;DHT22;9716;53.114;18.040;2022-12-18T09:18:59;-2.20;99.90
19168;DHT22;9716;53.114;18.040;2022-12-18T09:21:29;-2.10;99.90
19168;DHT22;9716;53.114;18.040;2022-12-18T09:24:04;-2.10;99.90
19168;DHT22;9716;53.114;18.040;2022-12-18T09:26:35;-2.10;99.90
19168;DHT22;9716;53.114;18.040;2022-12-18T09:29:05;-2.10;99.90
19168;DHT22;9716;53.114;18.040;2022-12-18T09:31:35;-2.00;99.90
19168;DHT22;9716;53.114;18.040;2022-12-18T09:34:03;-2.00;99.90
19168;DHT22;9716;53.114;18.040;2022-12-18T09:36:32;-2.00;99.90
19168;DHT22;9716;53.114;18.040;2022-12-18T09:39:02;-1.90;99.90
19168;DHT22;9716;53.114;18.040;2022-12-18T09:41:45;-1.90;99.90
19168;DHT22;9716;53.114;18.040;2022-12-18T09:44:20;-1.80;99.90
19168;DHT22;9716;53.114;18.040;2022-12-18T09:46:56;-1.80;99.90
19168;DHT22;9716;53.114;18.040;2022-12-18T09:49:29;-1.70;99.90
19168;DHT22;9716;53.114;18.040;2022-12-18T09:52:02;-1.60;99.90
19168;DHT22;9716;53.114;18.040;2022-12-18T09:54:36;-1.60;99.90
19168;DHT22;9716;53.114;18.040;2022-12-18T09:57:12;-1.50;99.90
19168;DHT22;9716;53.114;18.040;2022-12-18T09:59:43;-1.50;99.90
19168;DHT22;9716;53.114;18.040;2022-12-18T10:02:17;-1.40;99.90
19168;DHT22;9716;53.114;18.040;2022-12-18T10:05:04;-1.40;99.90
19168;DHT22;9716;53.114;18.040;2022-12-18T10:07:43;-1.40;99.90
19168;DHT22;9716;53.114;18.040;2022-12-18T10:10:23;-1.40;99.90
19168;DHT22;9716;53.114;18.040;2022-12-18T10:13:02;-1.40;99.90
19168;DHT22;9716;53.114;18.040;2022-12-18T10:15:38;-1.40;99.90
19168;DHT22;9716;53.114;18.040;2022-12-18T10:18:21;-1.40;99.90
19168;DHT22;9716;53.114;18.040;2022-12-18T10:20:53;-1.30;99.90
19168;DHT22;9716;53.114;18.040;2022-12-18T10:23:26;-1.30;99.90
19168;DHT22;9716;53.114;18.040;2022-12-18T10:26:00;-1.20;99.90
19168;DHT22;9716;53.114;18.040;2022-12-18T10:28:31;-1.30;99.90
19168;DHT22;9716;53.114;18.040;2022-12-18T10:31:00;-1.20;99.90
19168;DHT22;9716;53.114;18.040;2022-12-18T10:33:30;-1.20;99.90
19168;DHT22;9716;53.114;18.040;2022-12-18T10:35:59;-1.10;99.90
19168;DHT22;9716;53.114;18.040;2022-12-18T10:38:29;-1.10;99.90
19168;DHT22;9716;53.114;18.040;2022-12-18T10:41:02;-1.10;99.90
19168;DHT22;9716;53.114;18.040;2022-12-18T10:43:33;-1.10;99.90
19168;DHT22;9716;53.114;18.040;2022-12-18T10:46:11;-1.00;99.90
19168;DHT22;9716;53.114;18.040;2022-12-18T10:48:50;-1.00;99.90
19168;DHT22;9716;53.114;18.040;2022-12-18T10:51:22;-1.00;99.90
19168;DHT22;9716;53.114;18.040;2022-12-18T10:53:54;-1.00;99.90
19168;DHT22;9716;53.114;18.040;2022-12-18T10:56:27;-1.00;99.90
19168;DHT22;9716;53.114;18.040;2022-12-18T10:58:59;-1.10;99.90
19168;DHT22;9716;53.114;18.040;2022-12-18T11:01:28;-1.10;99.90
19168;DHT22;9716;53.114;18.040;2022-12-18T11:04:02;-1.10;99.90
19168;DHT22;9716;53.114;18.040;2022-12-18T11:06:56;-1.20;99.90
19168;DHT22;9716;53.114;18.040;2022-12-18T11:09:27;-1.20;99.90
19168;DHT22;9716;53.114;18.040;2022-12-18T11:11:59;-1.20;99.90
19168;DHT22;9716;53.114;18.040;2022-12-18T11:14:30;-1.20;99.90
19168;DHT22;9716;53.114;18.040;2022-12-18T11:17:01;-1.20;99.90
19168;DHT22;9716;53.114;18.040;2022-12-18T11:19:53;-1.20;99.90
19168;DHT22;9716;53.114;18.040;2022-12-18T11:22:24;-1.20;99.90
19168;DHT22;9716;53.114;18.040;2022-12-18T11:24:57;-1.20;99.90
19168;DHT22;9716;53.114;18.040;2022-12-18T11:27:52;-1.20;99.90
19168;DHT22;9716;53.114;18.040;2022-12-18T11:30:24;-1.20;99.90
19168;DHT22;9716;53.114;18.040;2022-12-18T11:32:59;-1.20;99.90
19168;DHT22;9716;53.114;18.040;2022-12-18T11:35:38;-1.20;99.90
19168;DHT22;9716;53.114;18.040;2022-12-18T11:38:16;-1.20;99.90
19168;DHT22;9716;53.114;18.040;2022-12-18T11:40:51;-1.20;99.90
19168;DHT22;9716;53.114;18.040;2022-12-18T11:43:27;-1.20;99.90
19168;DHT22;9716;53.114;18.040;2022-12-18T11:46:02;-1.20;99.90
19168;DHT22;9716;53.114;18.040;2022-12-18T11:48:36;-1.30;99.90
19168;DHT22;9716;53.114;18.040;2022-12-18T11:51:12;-1.30;99.90
19168;DHT22;9716;53.114;18.040;2022-12-18T11:53:42;-1.30;99.90
19168;DHT22;9716;53.114;18.040;2022-12-18T11:56:26;-1.30;99.90
19168;DHT22;9716;53.114;18.040;2022-12-18T11:59:07;-1.30;99.90
19168;DHT22;9716;53.114;18.040;2022-12-18T12:01:45;-1.40;99.90
19168;DHT22;9716;53.114;18.040;2022-12-18T12:07:23;-1.30;99.90
19168;DHT22;9716;53.114;18.040;2022-12-18T12:10:04;-1.30;99.90
19168;DHT22;9716;53.114;18.040;2022-12-18T12:12:47;-1.30;99.90
19168;DHT22;9716;53.114;18.040;2022-12-18T12:15:26;-1.30;99.90
19168;DHT22;9716;53.114;18.040;2022-12-18T12:18:03;-1.40;99.90
19168;DHT22;9716;53.114;18.040;2022-12-18T12:20:45;-1.40;99.90
19168;DHT22;9716;53.114;18.040;2022-12-18T12:23:25;-1.40;99.90
19168;DHT22;9716;53.114;18.040;2022-12-18T12:26:01;-1.40;99.90
19168;DHT22;9716;53.114;18.040;2022-12-18T12:31:38;-1.40;99.90
19168;DHT22;9716;53.114;18.040;2022-12-18T12:34:17;-1.40;99.90
19168;DHT22;9716;53.114;18.040;2022-12-18T12:37:00;-1.40;99.90
19168;DHT22;9716;53.114;18.040;2022-12-18T12:39:35;-1.40;99.90
19168;DHT22;9716;53.114;18.040;2022-12-18T12:42:08;-1.40;99.90
19168;DHT22;9716;53.114;18.040;2022-12-18T12:45:06;-1.50;99.90
19168;DHT22;9716;53.114;18.040;2022-12-18T12:47:38;-1.50;99.90
19168;DHT22;9716;53.114;18.040;2022-12-18T12:50:15;-1.50;99.90
19168;DHT22;9716;53.114;18.040;2022-12-18T12:52:47;-1.50;99.90
19168;DHT22;9716;53.114;18.040;2022-12-18T12:55:19;-1.50;99.90
19168;DHT22;9716;53.114;18.040;2022-12-18T12:57:57;-1.60;99.90
19168;DHT22;9716;53.114;18.040;2022-12-18T13:00:28;-1.60;99.90
19168;DHT22;9716;53.114;18.040;2022-12-18T13:03:04;-1.60;99.90
19168;DHT22;9716;53.114;18.040;2022-12-18T13:05:43;-1.70;99.90
19168;DHT22;9716;53.114;18.040;2022-12-18T13:08:24;-1.70;99.90
19168;DHT22;9716;53.114;18.040;2022-12-18T13:10:54;-1.70;99.90
19168;DHT22;9716;53.114;18.040;2022-12-18T13:13:50;-1.80;99.90
19168;DHT22;9716;53.114;18.040;2022-12-18T13:16:20;-1.80;99.90
19168;DHT22;9716;53.114;18.040;2022-12-18T13:18:52;-1.90;99.90
19168;DHT22;9716;53.114;18.040;2022-12-18T13:21:24;-1.90;99.90
19168;DHT22;9716;53.114;18.040;2022-12-18T13:23:55;-1.90;99.90
19168;DHT22;9716;53.114;18.040;2022-12-18T13:26:32;-2.00;99.90
19168;DHT22;9716;53.114;18.040;2022-12-18T13:29:02;-2.00;99.90
19168;DHT22;9716;53.114;18.040;2022-12-18T13:31:58;-2.10;99.90
19168;DHT22;9716;53.114;18.040;2022-12-18T13:34:30;-2.10;99.90
19168;DHT22;9716;53.114;18.040;2022-12-18T13:37:39;-2.10;99.90
19168;DHT22;9716;53.114;18.040;2022-12-18T13:43:24;-2.10;99.90
19168;DHT22;9716;53.114;18.040;2022-12-18T13:46:01;-2.20;99.90
19168;DHT22;9716;53.114;18.040;2022-12-18T13:48:33;-2.20;99.90
19168;DHT22;9716;53.114;18.040;2022-12-18T13:51:05;-2.10;99.90
19168;DHT22;9716;53.114;18.040;2022-12-18T13:53:38;-2.10;99.90
19168;DHT22;9716;53.114;18.040;2022-12-18T13:56:07;-2.20;99.90
19168;DHT22;9716;53.114;18.040;2022-12-18T13:58:36;-2.20;99.90
19168;DHT22;9716;53.114;18.040;2022-12-18T14:01:05;-2.30;99.90
19168;DHT22;9716;53.114;18.040;2022-12-18T14:03:34;-2.30;99.90
19168;DHT22;9716;53.114;18.040;2022-12-18T14:06:07;-2.30;99.90
19168;DHT22;9716;53.114;18.040;2022-12-18T14:08:39;-2.30;99.90
19168;DHT22;9716;53.114;18.040;2022-12-18T14:11:22;-2.40;99.90
19168;DHT22;9716;53.114;18.040;2022-12-18T14:13:53;-2.40;99.90
19168;DHT22;9716;53.114;18.040;2022-12-18T14:16:22;-2.40;99.90
19168;DHT22;9716;53.114;18.040;2022-12-18T14:18:53;-2.40;99.90
19168;DHT22;9716;53.114;18.040;2022-12-18T14:21:37;-2.50;99.90
19168;DHT22;9716;53.114;18.040;2022-12-18T14:24:13;-2.50;99.90
19168;DHT22;9716;53.114;18.040;2022-12-18T14:26:47;-2.50;99.90
19168;DHT22;9716;53.114;18.040;2022-12-18T14:29:23;-2.50;99.90
19168;DHT22;9716;53.114;18.040;2022-12-18T14:32:09;-2.50;99.90
19168;DHT22;9716;53.114;18.040;2022-12-18T14:34:45;-2.50;99.90
19168;DHT22;9716;53.114;18.040;2022-12-18T14:37:17;-2.50;99.90
19168;DHT22;9716;53.114;18.040;2022-12-18T14:39:56;-2.60;99.90
19168;DHT22;9716;53.114;18.040;2022-12-18T14:42:26;-2.60;99.90
19168;DHT22;9716;53.114;18.040;2022-12-18T14:45:33;-2.50;99.90
19168;DHT22;9716;53.114;18.040;2022-12-18T14:48:12;-2.70;99.90
19168;DHT22;9716;53.114;18.040;2022-12-18T14:51:01;-2.70;99.90
19168;DHT22;9716;53.114;18.040;2022-12-18T14:53:42;-2.70;99.90
19168;DHT22;9716;53.114;18.040;2022-12-18T14:56:21;-2.70;99.90
19168;DHT22;9716;53.114;18.040;2022-12-18T14:58:53;-2.80;99.90
19168;DHT22;9716;53.114;18.040;2022-12-18T15:01:25;-2.80;99.90
19168;DHT22;9716;53.114;18.040;2022-12-18T15:03:55;-2.80;99.90
19168;DHT22;9716;53.114;18.040;2022-12-18T15:06:28;-2.80;99.90
19168;DHT22;9716;53.114;18.040;2022-12-18T15:09:00;-2.70;99.90
19168;DHT22;9716;53.114;18.040;2022-12-18T15:11:45;-2.80;99.90
19168;DHT22;9716;53.114;18.040;2022-12-18T15:14:34;-2.80;99.90
19168;DHT22;9716;53.114;18.040;2022-12-18T15:17:05;-2.80;99.90
19168;DHT22;9716;53.114;18.040;2022-12-18T15:19:37;-2.80;99.90
19168;DHT22;9716;53.114;18.040;2022-12-18T15:22:20;-2.80;99.90
19168;DHT22;9716;53.114;18.040;2022-12-18T15:24:50;-2.80;99.90
19168;DHT22;9716;53.114;18.040;2022-12-18T15:27:28;-2.80;99.90
19168;DHT22;9716;53.114;18.040;2022-12-18T15:30:19;-2.80;99.90
19168;DHT22;9716;53.114;18.040;2022-12-18T15:32:49;-2.80;99.90
19168;DHT22;9716;53.114;18.040;2022-12-18T15:35:20;-2.80;99.90
19168;DHT22;9716;53.114;18.040;2022-12-18T15:37:49;-2.80;99.90
19168;DHT22;9716;53.114;18.040;2022-12-18T15:40:21;-2.80;99.90
19168;DHT22;9716;53.114;18.040;2022-12-18T15:42:52;-2.80;99.90
19168;DHT22;9716;53.114;18.040;2022-12-18T15:45:39;-2.80;99.90
19168;DHT22;9716;53.114;18.040;2022-12-18T15:48:17;-2.80;99.90
19168;DHT22;9716;53.114;18.040;2022-12-18T15:50:47;-2.90;99.90
19168;DHT22;9716;53.114;18.040;2022-12-18T15:53:16;-2.90;99.90
19168;DHT22;9716;53.114;18.040;2022-12-18T15:55:46;-2.90;99.90
19168;DHT22;9716;53.114;18.040;2022-12-18T15:58:32;-2.90;99.90
19168;DHT22;9716;53.114;18.040;2022-12-18T16:01:01;-2.90;99.90
19168;DHT22;9716;53.114;18.040;2022-12-18T16:03:30;-2.90;99.90
19168;DHT22;9716;53.114;18.040;2022-12-18T16:05:58;-2.90;99.90
19168;DHT22;9716;53.114;18.040;2022-12-18T16:08:30;-2.90;99.90
19168;DHT22;9716;53.114;18.040;2022-12-18T16:11:00;-2.90;99.90
19168;DHT22;9716;53.114;18.040;2022-12-18T16:13:29;-3.00;99.90